Latest Weather Observations for Moruya Airport

IDN60901

Issued at 10:31 am EDT Thursday 1 December 2022 (issued every 10 minutes, with the page automatically refreshed every 10 minutes)

About weather observations | Map of Canberra area stations | Latest observations for Canberra area | Other Formats
Station Details ID: 069148 Name: MORUYA AIRPORT AWS Lat: -35.90 Lon: 150.14 Height: 4.0 m
Data from the previous 72 hours. | See also: Recent months at Moruya Airport
Date/Time
EDT
Temp
°C
App
Temp
°C
Dew
Point
°C
Rel
Hum
%
Delta-T
°C
Wind Press
QNH
hPa
Press
MSL
hPa
Rain since
9am
mm
Dir  Spd
km/h
Gust
km/h
Spd
kts
Gust
kts
01/10:30am 17.4 14.9 14.1 81 1.9 SSE 20 26 11 14 1017.7 1017.6 0.0
01/10:00am 17.2 15.3 14.3 83 1.7 SSE 17 24 9 13 1017.8 1017.7 0.0
01/09:30am 17.3 15.4 14.2 82 1.8 S 17 22 9 12 1017.8 1017.7 0.0
01/09:00am 17.9 15.9 13.8 77 2.3 SSE 17 20 9 11 1017.7 1017.6 0.2
01/08:30am 18.9 18.2 13.3 70 3.2 SE 9 13 5 7 1017.4 1017.3 0.2
01/08:00am 18.2 17.6 12.4 69 3.2 S 7 11 4 6 1017.1 1017.0 0.2
01/07:30am 17.4 17.6 13.1 76 2.4 S 4 7 2 4 1016.7 1016.6 0.2
01/07:00am 16.4 16.2 13.7 84 1.5 SW 7 11 4 6 1016.4 1016.3 0.2
01/06:30am 15.8 15.7 14.0 89 1.0 WSW 7 9 4 5 1016.3 1016.2 0.2
01/06:00am 14.9 14.8 13.4 91 0.8 WNW 6 6 3 3 1016.1 1016.0 0.2
01/05:30am 14.5 14.1 12.5 88 1.1 NW 6 7 3 4 1016.0 1015.9 0.2
01/05:00am 14.9 14.7 12.9 88 1.1 NW 6 6 3 3 1015.8 1015.7 0.2
01/04:30am 15.0 15.2 12.9 87 1.2 NW 4 7 2 4 1015.7 1015.6 0.2
01/04:00am 15.1 14.9 13.1 88 1.1 WNW 6 6 3 3 1015.7 1015.6 0.2
01/03:30am 15.1 14.9 13.1 88 1.1 NW 6 7 3 4 1015.8 1015.7 0.2
01/03:00am 15.3 16.1 12.4 83 1.6 CALM 0 0 0 0 1015.7 1015.6 0.2
01/02:30am 15.8 16.6 12.5 81 1.8 CALM 0 0 0 0 1015.8 1015.7 0.2
01/02:00am 16.1 16.1 12.5 79 2.0 W 4 7 2 4 1016.3 1016.2 0.2
01/01:30am 16.1 16.9 12.5 79 2.0 CALM 0 0 0 0 1016.6 1016.5 0.2
01/01:00am 16.1 16.9 12.7 80 1.9 CALM 0 0 0 0 1016.7 1016.6 0.2
01/12:30am 16.2 16.0 12.9 81 1.8 NNW 6 7 3 4 1017.0 1016.9 0.2
01/12:00am 16.2 15.9 12.6 79 2.0 N 6 7 3 4 1017.1 1017.0 0.2
 
Date/Time
EDT
Temp
°C
App
Temp
°C
Dew
Point
°C
Rel
Hum
%
Delta-T
°C
Wind Press
QNH
hPa
Press
MSL
hPa
Rain since
9am
mm
Dir  Spd
km/h
Gust
km/h
Spd
kts
Gust
kts
30/11:30pm 16.4 15.9 12.6 78 2.1 N 7 9 4 5 1017.3 1017.2 0.2
30/11:00pm 16.5 16.0 12.8 79 2.0 N 7 9 4 5 1017.2 1017.1 0.2
30/10:30pm 16.2 16.0 12.9 81 1.8 N 6 7 3 4 1017.4 1017.3 0.2
30/10:00pm 15.8 15.4 12.4 80 1.9 N 6 6 3 3 1017.5 1017.4 0.2
30/09:30pm 16.2 15.6 12.4 78 2.1 N 7 9 4 5 1017.2 1017.1 0.2
30/09:00pm 16.6 16.0 12.4 76 2.3 N 7 9 4 5 1016.8 1016.7 0.2
30/08:30pm 17.0 16.1 12.5 75 2.5 N 9 13 5 7 1016.5 1016.4 0.2
30/08:00pm 17.6 15.2 12.7 73 2.7 NNE 17 20 9 11 1016.2 1016.1 0.2
30/07:30pm 18.1 15.6 13.4 74 2.7 NE 19 24 10 13 1016.3 1016.2 0.2
30/07:00pm 18.5 15.8 13.4 72 2.9 NNE 20 28 11 15 1015.7 1015.6 0.2
30/06:30pm 19.0 15.8 13.2 69 3.3 NE 22 30 12 16 1015.6 1015.5 0.2
30/06:00pm 19.3 16.1 13.0 67 3.6 NE 22 33 12 18 1015.5 1015.4 0.2
30/05:30pm 19.2 15.4 12.5 65 3.7 NE 24 32 13 17 1015.3 1015.2 0.2
30/05:00pm 19.7 15.2 12.5 63 4.0 NE 28 35 15 19 1015.5 1015.4 0.2
30/04:30pm 19.8 15.5 12.1 61 4.3 NE 26 33 14 18 1015.5 1015.4 0.2
30/04:00pm 19.6 15.8 12.4 63 4.0 NE 24 32 13 17 1015.4 1015.3 0.2
30/03:30pm 19.8 16.1 12.6 63 4.0 NE 24 32 13 17 1015.7 1015.6 0.2
30/03:00pm 20.2 16.6 12.9 63 4.1 NE 24 32 13 17 1016.0 1015.9 0.2
30/02:30pm 19.7 15.8 12.0 61 4.3 NE 24 32 13 17 1016.4 1016.3 0.2
30/02:00pm 20.3 16.6 12.8 62 4.2 NE 24 32 13 17 1016.7 1016.6 0.2
30/01:30pm 20.1 16.4 12.8 63 4.1 NE 24 30 13 16 1017.0 1016.9 0.2
30/01:00pm 20.0 16.7 12.7 63 4.1 NE 22 28 12 15 1017.2 1017.1 0.2
30/12:30pm 19.7 16.7 12.5 63 4.0 NE 20 24 11 13 1017.5 1017.4 0.2
30/12:00pm 18.4 15.2 11.2 63 3.9 NE 19 22 10 12 1017.9 1017.8 0.2
30/11:30am 18.2 15.1 11.7 66 3.6 NE 19 24 10 13 1018.2 1018.1 0.2
30/11:00am 18.2 15.7 12.2 68 3.3 NE 17 20 9 11 1018.4 1018.3 0.2
30/10:30am 18.1 15.8 11.7 66 3.5 NE 15 20 8 11 1018.5 1018.4 0.0
30/10:00am 18.5 17.0 12.0 66 3.6 N 11 19 6 10 1018.6 1018.5 0.0
30/09:30am 17.5 15.6 11.8 69 3.1 N 13 20 7 11 1019.0 1018.9 0.0
30/09:00am 16.6 14.5 11.3 71 2.9 N 13 20 7 11 1019.0 1018.9 0.2
30/08:30am 15.8 14.3 11.8 77 2.2 N 11 17 6 9 1019.1 1019.0 0.2
30/08:00am 15.4 14.4 12.2 81 1.7 N 9 13 5 7 1019.0 1018.9 0.2
30/07:30am 14.9 13.9 12.4 85 1.4 NNW 9 15 5 8 1018.9 1018.8 0.2
30/07:00am 14.4 14.1 12.6 89 1.0 NNW 6 9 3 5 1018.8 1018.7 0.2
30/06:30am 13.8 13.8 12.5 92 0.7 NNW 4 7 2 4 1018.7 1018.6 0.2
30/06:00am 13.6 13.6 12.3 92 0.7 NW 4 7 2 4 1018.6 1018.5 0.2
30/05:30am 13.5 12.9 12.4 93 0.6 WNW 7 11 4 6 1018.4 1018.3 0.2
30/05:00am 13.5 13.0 12.2 92 0.7 WNW 6 7 3 4 1018.2 1018.1 0.2
30/04:30am 13.5 13.0 12.2 92 0.7 WNW 6 7 3 4 1018.2 1018.1 0.2
30/04:00am 13.5 13.1 12.4 93 0.6 NW 6 9 3 5 1018.3 1018.2 0.2
30/03:30am 13.5 12.9 12.4 93 0.6 WNW 7 11 4 6 1018.5 1018.4 0.2
30/03:10am 13.5 13.1 12.4 93 0.6 NW 6 9 3 5 1018.6 1018.5 0.2
30/03:00am 13.6 12.7 12.5 93 0.6 NNW 9 11 5 6 1018.7 1018.6 0.2
30/02:52am 13.6 12.6 12.3 92 0.7 NNW 9 13 5 7 1018.8 1018.7 0.2
30/02:30am 13.8 13.2 12.4 91 0.8 NW 7 11 4 6 1018.8 1018.7 0.2
30/02:14am 13.9 13.9 12.5 91 0.8 NNW 4 11 2 6 1018.8 1018.7 0.2
30/02:00am 14.0 13.7 12.6 91 0.8 NNW 6 9 3 5 1018.9 1018.8 0.2
30/01:53am 14.0 13.5 12.6 91 0.8 NNW 7 9 4 5 1018.9 1018.8 0.2
30/01:34am 14.2 13.6 12.4 89 1.0 WNW 7 11 4 6 1018.8 1018.7 0.2
30/01:30am 14.2 13.6 12.4 89 1.0 W 7 9 4 5 1018.8 1018.7 0.2
30/01:17am 14.3 13.3 12.3 88 1.1 W 9 13 5 7 1018.8 1018.7 0.0
30/01:00am 14.6 12.7 11.7 83 1.6 WSW 13 20 7 11 1018.6 1018.5 0.0
30/12:30am 16.6 14.6 10.0 65 3.5 SE 11 15 6 8 1018.5 1018.4 0.0
30/12:00am 16.7 14.2 9.6 63 3.7 SE 13 19 7 10 1018.6 1018.5 0.0
 
Date/Time
EDT
Temp
°C
App
Temp
°C
Dew
Point
°C
Rel
Hum
%
Delta-T
°C
Wind Press
QNH
hPa
Press
MSL
hPa
Rain since
9am
mm
Dir  Spd
km/h
Gust
km/h
Spd
kts
Gust
kts
29/11:30pm 16.6 14.1 9.8 64 3.6 SE 13 17 7 9 1018.5 1018.4 0.0
29/11:00pm 16.7 13.9 10.1 65 3.5 ESE 15 22 8 12 1018.5 1018.4 0.0
29/10:30pm 16.7 13.9 9.9 64 3.6 SE 15 20 8 11 1018.5 1018.4 0.0
29/10:00pm 16.8 14.1 10.4 66 3.4 SE 15 20 8 11 1018.3 1018.2 0.0
29/09:30pm 16.9 14.4 9.8 63 3.7 SE 13 17 7 9 1017.9 1017.8 0.0
29/09:00pm 16.9 14.4 9.8 63 3.7 SE 13 17 7 9 1017.6 1017.5 0.0
29/08:30pm 16.8 14.3 9.7 63 3.7 SE 13 17 7 9 1017.3 1017.2 0.0
29/08:00pm 16.8 14.8 10.2 65 3.5 ESE 11 17 6 9 1017.0 1016.9 0.0
29/07:30pm 17.0 14.5 9.7 62 3.8 ESE 13 17 7 9 1016.6 1016.5 0.0
29/07:00pm 17.6 14.5 9.0 57 4.5 ESE 15 19 8 10 1016.0 1015.9 0.0
29/06:30pm 17.7 14.5 10.1 61 4.0 SE 17 22 9 12 1015.7 1015.6 0.0
29/06:00pm 18.4 15.4 9.2 55 4.8 SE 15 20 8 11 1015.0 1014.9 0.0
29/05:30pm 18.7 15.3 9.2 54 5.0 ESE 17 26 9 14 1014.8 1014.7 0.0
29/05:00pm 18.9 14.8 8.8 52 5.3 SE 20 26 11 14 1014.4 1014.3 0.0
29/04:30pm 19.4 15.7 9.3 52 5.3 SE 19 28 10 15 1014.2 1014.1 0.0
29/04:00pm 19.9 15.5 7.6 45 6.3 SE 20 28 11 15 1013.8 1013.7 0.0
29/03:30pm 20.3 16.3 8.9 48 6.0 SE 20 26 11 14 1013.7 1013.6 0.0
29/03:00pm 20.1 16.5 9.9 52 5.5 ESE 19 26 10 14 1013.5 1013.4 0.0
29/02:30pm 20.1 16.4 10.2 53 5.3 SE 20 28 11 15 1013.4 1013.3 0.0
29/02:00pm 19.1 15.0 8.7 51 5.4 SE 20 32 11 17 1013.4 1013.3 0.0
29/01:30pm 19.3 14.4 9.8 54 5.1 SE 26 35 14 19 1013.3 1013.2 0.0
29/01:00pm 20.3 16.4 10.7 54 5.2 SE 22 30 12 16 1013.2 1013.1 0.0
29/12:30pm 19.7 16.7 12.0 61 4.3 SSE 19 26 10 14 1013.2 1013.1 0.0
29/12:00pm 18.5 14.9 9.8 57 4.6 SE 19 28 10 15 1013.2 1013.1 0.0
29/11:30am 18.8 15.4 11.1 61 4.2 SSE 20 26 11 14 1013.0 1012.9 0.0
29/11:00am 18.5 15.7 12.7 69 3.2 SE 19 26 10 14 1012.5 1012.4 0.0
29/10:30am 17.7 13.9 11.3 66 3.5 SE 22 30 12 16 1012.2 1012.1 0.0
29/10:00am 17.8 13.6 12.5 71 2.9 SSE 26 37 14 20 1011.9 1011.8 0.0
29/09:30am 17.7 14.0 11.5 67 3.4 SE 22 33 12 18 1011.8 1011.7 0.0
29/09:00am 17.5 16.4 11.8 69 3.1 SW 9 13 5 7 1011.1 1011.0 2.0
29/08:30am 15.4 14.8 12.3 82 1.7 SW 7 13 4 7 1010.9 1010.8 2.0
29/08:00am 14.2 14.4 12.9 92 0.7 W 4 7 2 4 1010.5 1010.4 2.0
29/07:32am 13.5 13.3 12.9 96 0.3 NW 6 9 3 5 1010.2 1010.1 2.0
29/07:30am 13.6 13.4 13.0 96 0.3 NW 6 11 3 6 1010.2 1010.1 2.0
29/07:15am 12.9 12.9 12.4 97 0.3 WNW 4 7 2 4 1010.0 1009.9 2.0
29/07:00am 12.5 12.0 12.0 97 0.3 WNW 6 9 3 5 1009.9 1009.8 2.0
29/06:30am 12.3 11.5 11.8 97 0.3 WNW 7 9 4 5 1009.6 1009.5 2.0
29/06:00am 12.2 11.4 11.7 97 0.3 W 7 13 4 7 1009.5 1009.4 2.0
29/05:31am 12.3 10.8 11.8 97 0.3 WSW 11 15 6 8 1009.2 1009.1 2.0
29/05:30am 12.3 10.8 11.8 97 0.3 SW 11 15 6 8 1009.2 1009.1 2.0
29/05:17am 12.3 10.8 11.8 97 0.3 SW 11 13 6 7 1009.0 1008.9 2.0
29/05:00am 12.0 10.4 11.4 96 0.3 WSW 11 13 6 7 1008.7 1008.6 2.0
29/04:51am 12.0 10.4 11.4 96 0.3 SW 11 13 6 7 1008.7 1008.6 2.0
29/04:30am 12.0 10.7 11.2 95 0.4 WSW 9 11 5 6 1008.4 1008.3 2.0
29/04:23am 12.2 10.9 11.4 95 0.4 WSW 9 13 5 7 1008.4 1008.3 2.0
29/04:00am 11.9 11.1 11.0 94 0.5 W 6 9 3 5 1008.4 1008.3 2.0
29/03:30am 12.7 12.5 11.8 94 0.5 WNW 4 6 2 3 1008.6 1008.5 2.0
29/03:00am 13.0 13.7 12.1 94 0.5 CALM 0 0 0 0 1008.7 1008.6 2.0
29/02:30am 13.1 13.1 12.3 95 0.4 WNW 4 7 2 4 1008.8 1008.7 2.0
29/02:00am 13.2 12.6 12.4 95 0.4 W 7 11 4 6 1009.1 1009.0 2.0
29/01:30am 13.1 12.1 12.3 95 0.4 WNW 9 13 5 7 1009.2 1009.1 2.0
29/01:13am 13.1 12.1 12.3 95 0.4 W 9 13 5 7 1009.3 1009.2 2.0
29/01:00am 13.1 12.1 12.3 95 0.4 W 9 11 5 6 1009.4 1009.3 2.0
29/12:30am 13.0 12.4 12.2 95 0.4 W 7 11 4 6 1009.7 1009.6 2.0
29/12:11am 13.0 12.0 12.4 96 0.3 W 9 11 5 6 1009.8 1009.7 2.0
29/12:00am 13.1 12.2 12.5 96 0.3 WSW 9 13 5 7 1010.0 1009.9 2.0
 
Date/Time
EDT
Temp
°C
App
Temp
°C
Dew
Point
°C
Rel
Hum
%
Delta-T
°C
Wind Press
QNH
hPa
Press
MSL
hPa
Rain since
9am
mm
Dir  Spd
km/h
Gust
km/h
Spd
kts
Gust
kts
28/11:48pm 13.1 11.8 12.5 96 0.3 WSW 11 13 6 7 1010.1 1010.0 1.8
28/11:30pm 13.2 12.3 12.6 96 0.3 WSW 9 13 5 7 1009.9 1009.8 1.8
28/11:00pm 13.2 12.3 12.6 96 0.3 SW 9 13 5 7 1009.8 1009.7 1.8
28/10:54pm 13.3 12.4 12.7 96 0.3 SW 9 13 5 7 1009.8 1009.7 1.8
28/10:30pm 13.2 12.3 12.6 96 0.3 WSW 9 13 5 7 1009.7 1009.6 1.6
28/10:00pm 13.4 12.6 12.8 96 0.3 WSW 9 17 5 9 1009.8 1009.7 1.4
28/09:30pm 13.4 12.2 12.8 96 0.3 SW 11 15 6 8 1009.3 1009.2 1.4
28/09:00pm 13.7 12.6 13.1 96 0.3 SW 11 15 6 8 1008.9 1008.8 1.2
28/08:30pm 13.6 12.4 12.8 95 0.4 SSW 11 13 6 7 1008.8 1008.7 1.2
28/08:00pm 13.8 12.7 13.0 95 0.4 S 11 17 6 9 1008.6 1008.5 1.0
28/07:30pm 13.9 12.4 13.1 95 0.4 S 13 17 7 9 1008.3 1008.2 1.0
28/07:00pm 14.0 12.2 13.2 95 0.4 S 15 20 8 11 1007.8 1007.7 0.8
28/06:30pm 14.4 13.0 13.4 94 0.6 S 13 20 7 11 1007.3 1007.2 0.6
28/06:00pm 14.5 13.5 13.5 94 0.6 S 11 15 6 8 1006.9 1006.8 0.6
28/05:30pm 14.4 13.4 13.4 94 0.6 S 11 15 6 8 1006.7 1006.6 0.4
28/05:00pm 14.5 13.1 13.5 94 0.6 S 13 15 7 8 1006.6 1006.5 0.4
28/04:30pm 14.6 13.2 13.5 93 0.6 S 13 20 7 11 1006.6 1006.5 0.4
28/04:28pm 14.7 13.3 13.4 92 0.7 SSE 13 19 7 10 1006.6 1006.5 0.4
28/04:18pm 14.6 12.9 13.5 93 0.6 SSE 15 19 8 10 1006.6 1006.5 0.4
28/04:05pm 14.7 13.4 13.6 93 0.6 SSE 13 17 7 9 1006.5 1006.4 0.2
28/04:02pm 14.6 13.2 13.5 93 0.6 SSE 13 17 7 9 1006.6 1006.5 0.2
28/04:00pm 14.6 13.2 13.3 92 0.7 SSE 13 17 7 9 1006.6 1006.5 0.2
28/03:48pm 14.6 13.2 13.3 92 0.7 SSE 13 17 7 9 1006.6 1006.5 0.2
28/03:30pm 14.6 13.1 13.0 90 0.9 S 13 15 7 8 1006.5 1006.4 0.2
28/03:00pm 15.4 14.0 12.2 81 1.7 SSE 11 17 6 9 1006.5 1006.4 0.2
28/02:59pm 15.6 14.3 12.5 82 1.7 SSE 11 17 6 9 1006.5 1006.4 0.2
28/02:30pm 16.5 15.3 11.6 73 2.7 ESE 9 15 5 8 1006.5 1006.4 0.2
28/02:00pm 16.6 15.1 12.0 74 2.5 E 11 15 6 8 1006.5 1006.4 0.2
28/01:30pm 16.6 14.9 11.3 71 2.9 ESE 11 15 6 8 1006.6 1006.5 0.2
28/01:00pm 16.7 15.0 11.2 70 3.0 ESE 11 17 6 9 1006.8 1006.7 0.2
28/12:30pm 16.9 14.6 10.5 66 3.4 ESE 13 17 7 9 1006.9 1006.8 0.2
28/12:00pm 16.8 14.4 10.2 65 3.5 SSE 13 19 7 10 1007.3 1007.2 0.2
28/11:30am 17.9 15.8 11.0 64 3.7 SE 13 20 7 11 1007.2 1007.1 0.0
28/11:00am 16.9 14.3 10.7 67 3.3 SE 15 19 8 10 1007.5 1007.4 0.0

Latest Capital City Observations: Canberra | Sydney | Melbourne | Brisbane | Adelaide | Perth | Hobart | Darwin

Other formats

Comma delimited format used in spreadsheet applications
http://www.bom.gov.au/fwo/IDN60903/IDN60903.95937.axf

JavaScript Object Notation format (JSON) in row-major order
http://www.bom.gov.au/fwo/IDN60903/IDN60903.95937.json

Data quality

Most of these data are generated automatically and are frequently updated. Quality checks on data are not normally performed. It is possible for incorrect values to appear. Refer to information at About Latest Weather Observations and please check the disclaimer before using these data.